Time;durP1;ratioP1;P1;durP2;ratioP2;P2;SDS_P1;SDS_P2;PMS_P1;PMS_P2;Temp;Humidity;BMP_temperature;BMP_pressure;BME280_temperature;BME280_humidity;BME280_pressure;Samples;Min_cycle;Max_cycle;Signal;HPM_P1;HPM_P2
2023/08/29 00:02:22;;;;;;;33.05;14.00;;;;;;;12.65;100.00;96771.13;5090023;28;20914;-77
2023/08/29 00:04:48;;;;;;;35.17;14.90;;;;;;;12.66;100.00;96773.50;5090298;28;20463;-77
2023/08/29 00:07:14;;;;;;;42.08;16.33;;;;;;;12.67;100.00;96771.63;5090332;28;20475;-77
2023/08/29 00:09:40;;;;;;;33.17;14.27;;;;;;;12.67;100.00;96761.00;5090277;28;20398;-77
2023/08/29 00:12:08;;;;;;;32.17;13.15;;;;;;;12.66;100.00;96764.72;5073617;28;20399;-77
2023/08/29 00:14:34;;;;;;;35.00;14.70;;;;;;;12.66;100.00;96768.19;5070162;28;20446;-77
2023/08/29 00:17:00;;;;;;;34.65;13.80;;;;;;;12.67;100.00;96763.66;5070013;28;20769;-77
2023/08/29 00:19:26;;;;;;;27.30;12.27;;;;;;;12.68;100.00;96758.09;5070110;28;20407;-77
2023/08/29 00:21:52;;;;;;;38.88;15.27;;;;;;;12.64;100.00;96757.03;5069854;28;20438;-77
2023/08/29 00:24:19;;;;;;;42.87;15.40;;;;;;;12.64;100.00;96757.03;5069946;28;20408;-77
2023/08/29 00:26:46;;;;;;;34.10;13.10;;;;;;;12.66;100.00;96756.75;5069947;28;20525;-77
2023/08/29 00:29:13;;;;;;;35.30;14.60;;;;;;;12.64;100.00;96757.03;5070596;28;20404;-77
2023/08/29 00:31:39;;;;;;;40.22;15.10;;;;;;;12.65;100.00;96753.31;5093631;28;20405;-77
2023/08/29 00:34:05;;;;;;;45.83;17.83;;;;;;;12.63;100.00;96757.34;5094353;28;20406;-77
2023/08/29 00:36:32;;;;;;;39.88;14.57;;;;;;;12.64;100.00;96759.69;5094124;28;20402;-77
2023/08/29 00:38:58;;;;;;;35.22;13.98;;;;;;;12.64;100.00;96759.69;5094240;28;20420;-77
2023/08/29 00:41:24;;;;;;;34.40;14.18;;;;;;;12.65;100.00;96760.50;5093735;28;20429;-77
2023/08/29 00:43:50;;;;;;;36.95;14.63;;;;;;;12.65;100.00;96768.44;5094141;28;20402;-77
2023/08/29 00:46:19;;;;;;;37.53;15.47;;;;;;;12.65;100.00;96766.59;5094004;28;20394;-77
2023/08/29 00:48:46;;;;;;;36.63;15.02;;;;;;;12.66;100.00;96768.19;5093908;28;20810;-77
2023/08/29 00:51:12;;;;;;;35.45;13.90;;;;;;;12.65;100.00;96774.56;5093751;28;20417;-77
2023/08/29 00:53:38;;;;;;;33.53;14.30;;;;;;;12.67;100.00;96779.59;5094081;28;20449;-77
2023/08/29 00:56:05;;;;;;;34.95;14.23;;;;;;;12.65;100.00;96777.22;5093935;28;20405;-77
2023/08/29 00:58:32;;;;;;;32.45;13.15;;;;;;;12.66;100.00;96772.69;5094051;28;20465;-77
2023/08/29 01:00:58;;;;;;;37.08;15.73;;;;;;;12.66;100.00;96772.69;5094124;28;20421;-77
2023/08/29 01:03:26;;;;;;;37.53;15.97;;;;;;;12.66;100.00;96770.03;5093939;28;20408;-77
2023/08/29 01:05:54;;;;;;;49.40;18.35;;;;;;;12.63;100.00;96771.38;5080682;28;20407;-77
2023/08/29 01:08:20;;;;;;;58.17;20.48;;;;;;;12.62;100.00;96771.69;5073388;28;20410;-77
2023/08/29 01:10:55;;;;;;;50.03;18.60;;;;;;;12.63;100.00;96771.38;5087397;28;20405;-77
2023/08/29 01:13:26;;;;;;;52.13;18.75;;;;;;;12.61;100.00;96762.94;5093429;28;20455;-77
2023/08/29 01:15:55;;;;;;;38.53;15.95;;;;;;;12.62;100.00;96766.38;5093780;28;20393;-77
2023/08/29 01:18:24;;;;;;;43.57;16.67;;;;;;;12.60;100.00;96756.03;5093770;28;20404;-77
2023/08/29 01:20:59;;;;;;;50.78;18.10;;;;;;;12.62;100.00;96758.41;5093748;28;20417;-77
2023/08/29 01:23:35;;;;;;;49.78;18.60;;;;;;;12.60;100.00;96765.84;5095174;28;20891;-77
2023/08/29 01:26:12;;;;;;;51.45;18.60;;;;;;;12.61;100.00;96760.28;5100125;28;20406;-78
2023/08/29 01:28:39;;;;;;;40.90;17.17;;;;;;;12.62;100.00;96764.50;5098829;28;20757;-78
2023/08/29 01:31:06;;;;;;;42.58;16.67;;;;;;;12.62;100.00;96764.50;5082809;28;20402;-78
2023/08/29 01:33:34;;;;;;;51.25;20.25;;;;;;;12.57;100.00;96758.44;5079762;28;20392;-77
2023/08/29 01:36:00;;;;;;;52.33;20.40;;;;;;;12.60;100.00;96766.66;5084573;28;20485;-77
2023/08/29 01:38:26;;;;;;;56.35;21.35;;;;;;;12.57;100.00;96761.88;5069190;28;20407;-78
2023/08/29 01:40:52;;;;;;;53.22;20.60;;;;;;;12.62;100.00;96769.03;5077157;28;20419;-77
2023/08/29 01:43:20;;;;;;;45.17;18.55;;;;;;;12.62;100.00;96763.72;5077812;28;20878;-77
2023/08/29 01:45:46;;;;;;;52.73;20.50;;;;;;;12.62;100.00;96761.84;5092333;28;20406;-77
2023/08/29 01:48:13;;;;;;;54.00;20.75;;;;;;;12.60;100.00;96758.69;5097875;28;20398;-77
2023/08/29 01:50:41;;;;;;;47.90;19.58;;;;;;;12.60;100.00;96760.53;5098228;28;20454;-78
2023/08/29 01:53:08;;;;;;;46.15;18.73;;;;;;;12.60;100.00;96757.88;5082566;28;20392;-77
2023/08/29 01:55:35;;;;;;;44.90;18.23;;;;;;;12.60;100.00;96750.72;5079626;28;20399;-77
2023/08/29 01:58:04;;;;;;;44.83;17.65;;;;;;;12.60;100.00;96750.72;5079621;28;20400;-78
2023/08/29 02:00:32;;;;;;;44.08;17.88;;;;;;;12.59;100.00;96745.69;5076543;28;20400;-77
2023/08/29 02:02:59;;;;;;;45.13;18.05;;;;;;;12.60;100.00;96750.72;5078679;28;20403;-78
2023/08/29 02:05:25;;;;;;;57.90;20.30;;;;;;;12.60;100.00;96752.56;5079200;28;20408;-77
2023/08/29 02:07:51;;;;;;;47.50;18.85;;;;;;;12.59;100.00;96751.00;5078093;28;20399;-78
2023/08/29 02:10:18;;;;;;;62.30;22.20;;;;;;;12.61;100.00;96759.47;5078016;28;20798;-78
2023/08/29 02:12:44;;;;;;;68.35;24.98;;;;;;;12.55;100.00;96742.81;5078436;28;20404;-78
2023/08/29 02:15:10;;;;;;;56.38;20.88;;;;;;;12.60;100.00;96753.38;5079224;28;20399;-78
2023/08/29 02:17:38;;;;;;;63.05;21.83;;;;;;;12.61;100.00;96743.53;5079063;28;20936;-78
2023/08/29 02:20:06;;;;;;;49.70;19.17;;;;;;;12.61;100.00;96736.38;5079339;28;20399;-78
2023/08/29 02:22:33;;;;;;;55.73;20.30;;;;;;;12.62;100.00;96727.34;5078500;28;20915;-78
2023/08/29 02:25:02;;;;;;;60.72;22.52;;;;;;;12.63;100.00;96738.75;5079544;28;20417;-78
2023/08/29 02:27:28;;;;;;;46.72;18.77;;;;;;;12.65;100.00;96737.38;5078560;28;20414;-77
2023/08/29 02:29:55;;;;;;;46.95;17.50;;;;;;;12.64;100.00;96738.47;5072194;28;20404;-77
2023/08/29 02:32:21;;;;;;;45.50;17.88;;;;;;;12.66;100.00;96732.88;5071720;28;20392;-77
2023/08/29 02:34:49;;;;;;;44.90;16.98;;;;;;;12.66;100.00;96727.56;5072987;28;20400;-78
2023/08/29 02:37:15;;;;;;;44.63;18.10;;;;;;;12.65;100.00;96726.75;5079254;28;20402;-79
2023/08/29 02:39:41;;;;;;;58.03;21.00;;;;;;;12.65;100.00;96725.97;5079696;28;20400;-78
2023/08/29 02:42:08;;;;;;;53.33;21.13;;;;;;;12.65;100.00;96726.75;5096374;28;20899;-78
2023/08/29 02:44:34;;;;;;;51.78;20.58;;;;;;;12.66;100.00;96728.34;5100231;28;20398;-79
2023/08/29 02:47:00;;;;;;;52.35;19.15;;;;;;;12.66;100.00;96730.22;5099158;28;20413;-78
2023/08/29 02:49:26;;;;;;;43.53;18.30;;;;;;;12.67;100.00;96723.84;5088674;28;20392;-78
2023/08/29 02:51:54;;;;;;;42.33;17.70;;;;;;;12.68;100.00;96728.09;5078553;28;20403;-78
2023/08/29 02:54:20;;;;;;;41.25;15.88;;;;;;;12.66;100.00;96720.38;5077974;28;20407;-79
2023/08/29 02:56:46;;;;;;;36.92;15.25;;;;;;;12.67;100.00;96716.66;5077747;28;20411;-79
2023/08/29 02:59:12;;;;;;;39.22;15.85;;;;;;;12.68;100.00;96717.47;5077676;28;20865;-78
2023/08/29 03:01:38;;;;;;;42.60;16.65;;;;;;;12.68;100.00;96715.59;5084157;28;20412;-78
2023/08/29 03:04:05;;;;;;;46.70;18.97;;;;;;;12.67;100.00;96713.22;5078014;28;20490;-79
2023/08/29 03:06:31;;;;;;;52.45;18.88;;;;;;;12.68;100.00;96720.13;5078089;28;20792;-78
2023/08/29 03:08:58;;;;;;;47.33;18.58;;;;;;;12.68;100.00;96718.25;5076538;28;20404;-78
2023/08/29 03:11:25;;;;;;;46.83;18.63;;;;;;;12.67;100.00;96718.53;5075585;28;20406;-78
2023/08/29 03:13:51;;;;;;;48.45;18.75;;;;;;;12.68;100.00;96714.81;5076491;28;20486;-78
2023/08/29 03:16:17;;;;;;;45.22;18.73;;;;;;;12.68;100.00;96722.78;5075942;28;20419;-78
2023/08/29 03:18:43;;;;;;;43.75;17.42;;;;;;;12.68;100.00;96714.81;5057815;28;20419;-78
2023/08/29 03:21:10;;;;;;;35.67;15.45;;;;;;;12.68;100.00;96712.94;5092735;28;20405;-78
2023/08/29 03:23:36;;;;;;;32.33;14.10;;;;;;;12.68;100.00;96709.50;5096117;28;20485;-78
2023/08/29 03:26:05;;;;;;;48.70;18.13;;;;;;;12.68;100.00;96712.16;5095986;28;20546;-78
2023/08/29 03:28:31;;;;;;;44.97;17.50;;;;;;;12.66;100.00;96704.47;5080091;28;20417;-78
2023/08/29 03:31:06;;;;;;;45.10;19.27;;;;;;;12.64;100.00;96703.94;5096759;28;20398;-78
2023/08/29 03:33:32;;;;;;;52.40;19.55;;;;;;;12.66;100.00;96701.00;5075674;28;20415;-78
2023/08/29 03:35:58;;;;;;;49.28;19.90;;;;;;;12.66;100.00;96707.13;5083284;28;20394;-78
2023/08/29 03:38:25;;;;;;;47.85;19.05;;;;;;;12.66;100.00;96693.84;5096013;28;20430;-78
2023/08/29 03:40:57;;;;;;;56.47;22.08;;;;;;;12.64;100.00;96701.28;5095654;28;20402;-78
2023/08/29 03:43:30;;;;;;;51.65;20.52;;;;;;;12.66;100.00;96695.69;5095312;28;20406;-78
2023/08/29 03:45:57;;;;;;;55.83;21.92;;;;;;;12.64;100.00;96693.31;5079520;28;20396;-78
2023/08/29 03:48:23;;;;;;;58.78;22.13;;;;;;;12.64;100.00;96695.97;5084840;28;20402;-78
2023/08/29 03:50:50;;;;;;;60.42;23.33;;;;;;;12.61;100.00;96701.84;5093643;28;20402;-78
2023/08/29 03:53:16;;;;;;;55.70;21.77;;;;;;;12.64;100.00;96703.94;5093526;28;20422;-78
2023/08/29 03:55:43;;;;;;;56.97;20.92;;;;;;;12.62;100.00;96700.78;5093598;28;20405;-78
2023/08/29 03:58:09;;;;;;;55.10;21.98;;;;;;;12.59;100.00;96700.53;5093753;28;20398;-78
2023/08/29 04:00:36;;;;;;;66.35;24.83;;;;;;;12.61;100.00;96699.19;5093969;28;20398;-78
2023/08/29 04:03:06;;;;;;;63.10;24.63;;;;;;;12.60;100.00;96696.81;5093146;28;20410;-78
2023/08/29 04:05:32;;;;;;;65.70;24.45;;;;;;;12.60;100.00;96696.81;5093650;28;20394;-78
2023/08/29 04:07:58;;;;;;;80.53;27.65;;;;;;;12.57;100.00;96686.75;5093106;28;20402;-77
2023/08/29 04:10:25;;;;;;;69.22;26.00;;;;;;;12.57;100.00;96687.53;5093571;28;20790;-78
2023/08/29 04:12:51;;;;;;;75.68;27.30;;;;;;;12.57;100.00;96684.09;5091948;28;20394;-77
2023/08/29 04:15:17;;;;;;;67.90;24.85;;;;;;;12.55;100.00;96686.25;5080668;28;20453;-77
2023/08/29 04:17:45;;;;;;;69.67;25.50;;;;;;;12.55;100.00;96687.06;5070212;28;20446;-77
2023/08/29 04:20:12;;;;;;;69.53;25.23;;;;;;;12.56;100.00;96690.47;5070078;28;20407;-77
2023/08/29 04:22:39;;;;;;;76.15;27.63;;;;;;;12.54;100.00;96682.81;5069678;28;20415;-77
2023/08/29 04:25:06;;;;;;;90.60;30.53;;;;;;;12.53;100.00;96691.84;5069947;28;20928;-77
2023/08/29 04:27:32;;;;;;;94.80;30.05;;;;;;;12.53;100.00;96691.84;5070000;28;20435;-77
2023/08/29 04:29:59;;;;;;;69.15;25.38;;;;;;;12.55;100.00;96694.22;5070066;28;20886;-77
2023/08/29 04:32:25;;;;;;;75.47;26.42;;;;;;;12.55;100.00;96688.91;5088914;28;20486;-77
2023/08/29 04:34:53;;;;;;;80.38;25.88;;;;;;;12.50;100.00;96694.25;5090217;28;20883;-77
2023/08/29 04:37:19;;;;;;;77.63;27.25;;;;;;;12.54;100.00;96701.41;5090122;28;20398;-77
2023/08/29 04:39:45;;;;;;;82.65;27.58;;;;;;;12.56;100.00;96703.75;5090145;28;20907;-77
2023/08/29 04:42:11;;;;;;;92.03;29.90;;;;;;;12.57;100.00;96697.38;5089717;28;20418;-77
2023/08/29 04:44:37;;;;;;;87.55;27.92;;;;;;;12.57;100.00;96694.72;5090164;28;20906;-78
2023/08/29 04:47:04;;;;;;;90.20;29.73;;;;;;;12.56;100.00;96699.22;5089979;28;20424;-78
2023/08/29 04:49:30;;;;;;;93.80;29.58;;;;;;;12.56;100.00;96696.56;5090280;28;20406;-78
2023/08/29 04:51:57;;;;;;;81.72;26.75;;;;;;;12.57;100.00;96695.50;5089873;28;20888;-78
2023/08/29 04:54:24;;;;;;;71.43;25.45;;;;;;;12.57;100.00;96697.38;5089923;28;20409;-77
2023/08/29 04:56:50;;;;;;;60.03;22.63;;;;;;;12.57;100.00;96695.50;5083985;28;20417;-77
2023/08/29 04:59:16;;;;;;;61.33;21.48;;;;;;;12.59;100.00;96695.22;5081419;28;20398;-78
2023/08/29 05:01:43;;;;;;;66.50;23.75;;;;;;;12.58;100.00;96693.66;5064365;28;20489;-78
2023/08/29 05:04:09;;;;;;;67.57;25.25;;;;;;;12.60;100.00;96694.97;5083681;28;20888;-78
2023/08/29 05:06:36;;;;;;;70.60;24.65;;;;;;;12.60;100.00;96700.28;5074263;28;20924;-77
2023/08/29 05:09:06;;;;;;;80.07;26.77;;;;;;;12.59;100.00;96695.22;5086315;28;20875;-77
2023/08/29 05:11:33;;;;;;;93.95;30.33;;;;;;;12.53;100.00;96691.84;5076558;28;20426;-77
2023/08/29 05:13:59;;;;;;;76.85;26.58;;;;;;;12.53;100.00;96688.41;5079270;28;20408;-77
2023/08/29 05:16:25;;;;;;;70.53;24.80;;;;;;;12.50;100.00;96696.91;5057696;28;20849;-77
2023/08/29 05:18:52;;;;;;;65.22;22.77;;;;;;;12.46;100.00;96694.03;5089799;28;20408;-77
2023/08/29 05:21:18;;;;;;;74.18;24.98;;;;;;;12.43;100.00;96697.25;5078295;28;20418;-76
2023/08/29 05:23:44;;;;;;;75.50;24.93;;;;;;;12.36;100.00;96694.91;5084689;28;20404;-77
2023/08/29 05:26:12;;;;;;;82.38;27.35;;;;;;;12.32;100.00;96691.25;5084952;28;20409;-77
2023/08/29 05:28:38;;;;;;;102.97;32.28;;;;;;;12.29;100.00;96696.31;5077017;28;20762;-77
2023/08/29 05:31:04;;;;;;;87.63;29.50;;;;;;;12.27;100.00;96693.91;5089118;28;20461;-76
2023/08/29 05:33:31;;;;;;;94.93;31.15;;;;;;;12.26;100.00;96688.88;5074969;28;20410;-76
2023/08/29 05:35:57;;;;;;;99.05;31.13;;;;;;;12.26;100.00;96694.97;5079726;28;20441;-76
2023/08/29 05:38:25;;;;;;;107.70;35.22;;;;;;;12.24;100.00;96694.50;5079838;28;20398;-76
2023/08/29 05:40:52;;;;;;;99.18;30.95;;;;;;;12.25;100.00;96693.44;5092129;28;20398;-76
2023/08/29 05:43:19;;;;;;;90.13;28.88;;;;;;;12.29;100.00;96699.75;5082983;28;20446;-76
2023/08/29 05:45:45;;;;;;;83.95;27.73;;;;;;;12.32;100.00;96696.56;5093250;28;20875;-76
2023/08/29 05:48:12;;;;;;;77.90;25.85;;;;;;;12.36;100.00;96702.06;5093365;28;20859;-76
2023/08/29 05:50:40;;;;;;;84.10;27.90;;;;;;;12.37;100.00;96703.66;5093118;28;20437;-76
2023/08/29 05:53:06;;;;;;;95.93;29.65;;;;;;;12.37;100.00;96698.34;5092140;28;20485;-76
2023/08/29 05:55:32;;;;;;;86.55;27.02;;;;;;;12.37;100.00;96704.47;5087730;28;20404;-76
2023/08/29 05:57:59;;;;;;;89.70;28.52;;;;;;;12.36;100.00;96697.56;5089971;28;20406;-76
2023/08/29 06:00:26;;;;;;;85.43;28.27;;;;;;;12.36;100.00;96708.19;5083429;28;20402;-76
2023/08/29 06:02:53;;;;;;;83.05;28.08;;;;;;;12.37;100.00;96703.66;5090876;28;20768;-76
2023/08/29 06:05:19;;;;;;;137.13;37.75;;;;;;;12.35;100.00;96703.94;5092263;28;20447;-76
2023/08/29 06:07:46;;;;;;;145.45;40.05;;;;;;;12.34;100.00;96705.00;5092338;28;20416;-76
2023/08/29 06:10:13;;;;;;;109.93;34.10;;;;;;;12.33;100.00;96700.75;5092330;28;20426;-76
2023/08/29 06:12:39;;;;;;;93.35;30.38;;;;;;;12.33;100.00;96706.06;5072911;28;20424;-76
2023/08/29 06:15:06;;;;;;;79.55;26.83;;;;;;;12.37;100.00;96703.66;5090607;28;20420;-76
2023/08/29 06:17:34;;;;;;;90.23;29.37;;;;;;;12.37;100.00;96704.47;5081398;28;20396;-76
2023/08/29 06:20:00;;;;;;;88.30;29.20;;;;;;;12.37;100.00;96706.31;5089812;28;20767;-76
2023/08/29 06:22:26;;;;;;;87.60;27.02;;;;;;;12.36;100.00;96715.34;5077918;28;20418;-76
2023/08/29 06:24:52;;;;;;;76.75;25.67;;;;;;;12.37;100.00;96724.91;5084045;28;20445;-75
2023/08/29 06:27:19;;;;;;;63.38;22.75;;;;;;;12.38;100.00;96719.31;5077758;28;20434;-74
2023/08/29 06:29:45;;;;;;;56.50;20.52;;;;;;;12.38;100.00;96727.28;5086977;28;20429;-76
2023/08/29 06:32:11;;;;;;;63.78;20.83;;;;;;;12.39;100.00;96726.22;5089047;28;20505;-75
2023/08/29 06:34:39;;;;;;;52.17;18.55;;;;;;;12.39;100.00;96728.06;5085338;28;20399;-75
2023/08/29 06:37:06;;;;;;;44.50;16.77;;;;;;;12.40;100.00;96734.97;5088256;28;20809;-75
2023/08/29 06:39:32;;;;;;;46.25;16.02;;;;;;;12.42;100.00;96732.81;5089268;28;20825;-75
2023/08/29 06:41:58;;;;;;;45.00;16.48;;;;;;;12.41;100.00;96736.53;5086334;28;20818;-75
2023/08/29 06:44:25;;;;;;;41.45;15.20;;;;;;;12.43;100.00;96742.38;5088378;28;20418;-77
2023/08/29 06:46:51;;;;;;;39.78;13.90;;;;;;;12.46;100.00;96757.75;5086205;28;20395;-74
2023/08/29 06:49:17;;;;;;;37.85;13.10;;;;;;;12.47;100.00;96754.03;5091550;28;20469;-72
2023/08/29 06:51:44;;;;;;;35.70;13.77;;;;;;;12.48;100.00;96760.13;5090880;28;20402;-72
2023/08/29 06:54:11;;;;;;;40.10;14.35;;;;;;;12.47;100.00;96756.69;5091162;28;20959;-73
2023/08/29 06:56:37;;;;;;;33.22;13.15;;;;;;;12.47;100.00;96750.56;5088788;28;20402;-73
2023/08/29 06:59:03;;;;;;;37.13;13.10;;;;;;;12.46;100.00;96756.94;5089829;28;20491;-73
2023/08/29 07:01:29;;;;;;;32.40;13.05;;;;;;;12.44;100.00;96762.53;5090148;28;20500;-73
2023/08/29 07:03:56;;;;;;;37.47;14.45;;;;;;;12.46;100.00;96760.41;5091206;28;20398;-73
2023/08/29 07:06:22;;;;;;;33.63;13.18;;;;;;;12.47;100.00;96766.50;5089547;28;20471;-73
2023/08/29 07:08:49;;;;;;;46.80;15.15;;;;;;;12.50;100.00;96768.59;5091168;28;20418;-73
2023/08/29 07:11:16;;;;;;;37.65;14.38;;;;;;;12.52;100.00;96769.09;5090773;28;20910;-73
2023/08/29 07:13:42;;;;;;;38.53;13.65;;;;;;;12.53;100.00;96768.03;5091057;28;20398;-73
2023/08/29 07:16:08;;;;;;;34.33;13.70;;;;;;;12.56;100.00;96770.13;5091103;28;20907;-73
2023/08/29 07:18:34;;;;;;;49.38;17.17;;;;;;;12.58;100.00;96768.78;5091404;28;20489;-73
2023/08/29 07:21:01;;;;;;;48.67;17.23;;;;;;;12.60;100.00;96768.50;5091036;28;20558;-73
2023/08/29 07:23:28;;;;;;;43.07;16.67;;;;;;;12.62;100.00;96766.38;5090470;28;20455;-73
2023/08/29 07:25:55;;;;;;;44.92;15.93;;;;;;;12.68;100.00;96774.00;5090589;28;20485;-74
2023/08/29 07:28:23;;;;;;;37.72;14.88;;;;;;;12.73;100.00;96776.63;5087851;28;20397;-73
2023/08/29 07:30:51;;;;;;;62.65;20.17;;;;;;;12.74;100.00;96778.22;5090802;28;20404;-73
2023/08/29 07:33:18;;;;;;;51.40;18.33;;;;;;;12.75;100.00;96782.44;5090626;28;20398;-73
2023/08/29 07:35:45;;;;;;;42.65;16.55;;;;;;;12.77;100.00;96785.63;5090818;28;20455;-72
2023/08/29 07:38:12;;;;;;;59.58;19.95;;;;;;;12.79;100.00;96780.81;5090588;28;20414;-73
2023/08/29 07:40:39;;;;;;;57.38;20.98;;;;;;;12.80;100.00;96789.56;5090490;28;20399;-74
2023/08/29 07:43:08;;;;;;;74.40;24.47;;;;;;;12.79;100.00;96791.44;5090579;28;20428;-74
2023/08/29 07:45:35;;;;;;;56.97;19.83;;;;;;;12.79;100.00;96799.41;5089972;28;20479;-74
2023/08/29 07:48:02;;;;;;;74.60;25.02;;;;;;;12.78;100.00;96792.50;5090390;28;20398;-74
2023/08/29 07:50:28;;;;;;;59.27;20.73;;;;;;;12.80;100.00;96797.53;5090523;28;20449;-74
2023/08/29 07:52:55;;;;;;;51.47;19.35;;;;;;;12.84;100.00;96798.56;5072007;28;20477;-74
2023/08/29 07:55:21;;;;;;;48.17;18.48;;;;;;;12.86;100.00;96798.28;5089524;28;20402;-73
2023/08/29 07:57:48;;;;;;;58.95;21.08;;;;;;;12.86;100.00;96806.25;5090590;28;20748;-74
2023/08/29 08:00:16;;;;;;;70.90;23.90;;;;;;;12.84;100.00;96800.44;5090322;28;20409;-74
2023/08/29 08:02:43;;;;;;;71.57;23.83;;;;;;;12.83;100.00;96810.28;5071218;28;20505;-73
2023/08/29 08:05:11;;;;;;;78.60;27.23;;;;;;;12.79;100.00;96812.69;5079561;28;20400;-72
2023/08/29 08:07:37;;;;;;;77.63;26.60;;;;;;;12.74;100.00;96809.28;5071235;28;20401;-72
2023/08/29 08:10:04;;;;;;;90.10;30.05;;;;;;;12.67;100.00;96806.94;5090689;28;20400;-72
2023/08/29 08:12:31;;;;;;;71.05;26.27;;;;;;;12.68;100.00;96811.19;5072100;28;20491;-73
2023/08/29 08:14:57;;;;;;;59.70;23.50;;;;;;;12.70;100.00;96809.06;5086631;28;20453;-74
2023/08/29 08:17:25;;;;;;;68.63;24.63;;;;;;;12.75;100.00;96808.22;5084898;28;20402;-73
2023/08/29 08:19:51;;;;;;;62.00;22.63;;;;;;;12.82;100.00;96805.22;5087581;28;20398;-73
2023/08/29 08:22:20;;;;;;;93.53;30.03;;;;;;;12.86;100.00;96807.03;5086975;28;20421;-73
2023/08/29 08:24:46;;;;;;;70.60;25.65;;;;;;;12.90;100.00;96808.09;5084349;28;20458;-72
2023/08/29 08:27:12;;;;;;;61.38;23.67;;;;;;;13.00;100.00;96809.84;5087141;28;20402;-74
2023/08/29 08:29:38;;;;;;;86.35;30.95;;;;;;;13.07;100.00;96820.94;5079984;28;20793;-73
2023/08/29 08:32:05;;;;;;;78.20;29.65;;;;;;;13.08;100.00;96812.69;5081755;28;20489;-73
2023/08/29 08:34:32;;;;;;;64.70;26.08;;;;;;;13.13;100.00;96809.22;5086930;28;20451;-73
2023/08/29 08:36:58;;;;;;;65.75;25.88;;;;;;;13.20;100.00;96812.34;5083684;28;20746;-74
2023/08/29 08:39:25;;;;;;;76.78;27.50;;;;;;;13.22;100.00;96814.72;5077120;28;20401;-74
2023/08/29 08:41:52;;;;;;;58.38;24.42;;;;;;;13.27;100.00;96818.13;5078708;28;20446;-74
2023/08/29 08:44:21;;;;;;;50.72;21.48;;;;;;;13.36;100.00;96818.28;5084497;28;20405;-74
2023/08/29 08:46:47;;;;;;;54.10;21.40;;;;;;;13.46;100.00;96821.63;5072887;28;20407;-74
2023/08/29 08:49:14;;;;;;;44.72;18.88;;;;;;;13.53;100.00;96829.28;5075618;28;20401;-74
2023/08/29 08:51:42;;;;;;;75.68;27.15;;;;;;;13.52;100.00;96825.03;5076733;28;20392;-74
2023/08/29 08:54:10;;;;;;;64.68;24.35;;;;;;;13.46;100.00;96818.97;5090018;28;20755;-73
2023/08/29 08:56:38;;;;;;;49.67;20.20;;;;;;;13.48;100.00;96818.69;5079185;28;20749;-74
2023/08/29 08:59:05;;;;;;;41.75;18.00;;;;;;;13.53;100.00;96822.06;5084688;28;20395;-74
2023/08/29 09:01:31;;;;;;;36.83;16.77;;;;;;;13.55;100.00;96822.59;5087403;28;20409;-74
2023/08/29 09:03:57;;;;;;;35.03;15.80;;;;;;;13.60;100.00;96828.94;5091097;28;20490;-74
2023/08/29 09:06:23;;;;;;;36.00;16.50;;;;;;;13.62;100.00;96822.25;5079415;28;20455;-74
2023/08/29 09:08:51;;;;;;;41.70;18.00;;;;;;;13.66;100.00;96825.94;5086548;28;20907;-74
2023/08/29 09:11:18;;;;;;;51.70;19.10;;;;;;;13.71;100.00;96814.44;5084632;28;20476;-75
2023/08/29 09:13:48;;;;;;;36.08;16.00;;;;;;;13.76;100.00;96820.47;5087117;28;20410;-74
2023/08/29 09:16:16;;;;;;;42.30;18.13;;;;;;;13.80;100.00;96821.50;5083685;28;20481;-73
2023/08/29 09:18:43;;;;;;;58.80;23.90;;;;;;;13.80;100.00;96816.19;5077266;28;20407;-73
2023/08/29 09:21:16;;;;;;;69.77;26.67;;;;;;;13.73;100.00;96822.91;5089328;28;20427;-74
2023/08/29 09:23:42;;;;;;;50.38;21.13;;;;;;;13.68;100.00;96821.09;5077353;28;20800;-73
2023/08/29 09:26:12;;;;;;;41.55;18.92;;;;;;;13.68;100.00;96833.63;5084039;28;20941;-73
2023/08/29 09:28:38;;;;;;;40.00;17.45;;;;;;;13.66;100.00;96838.44;5082330;28;20397;-74
2023/08/29 09:31:06;;;;;;;41.05;18.00;;;;;;;13.62;100.00;96832.09;5056543;28;20935;-73
2023/08/29 09:33:33;;;;;;;41.15;16.95;;;;;;;13.56;100.00;96821.50;5085275;28;20442;-73
2023/08/29 09:36:01;;;;;;;56.45;20.35;;;;;;;13.51;100.00;96826.91;5086199;28;20403;-73
2023/08/29 09:38:31;;;;;;;41.47;17.00;;;;;;;13.49;100.00;96823.72;5089323;28;20500;-73
2023/08/29 09:40:58;;;;;;;65.95;23.58;;;;;;;13.44;100.00;96826.44;5088009;28;20398;-74
2023/08/29 09:43:27;;;;;;;53.33;21.52;;;;;;;13.44;100.00;96829.09;5073427;28;20422;-74
2023/08/29 09:45:55;;;;;;;53.95;20.90;;;;;;;13.52;100.00;96838.31;5087315;28;20471;-72
2023/08/29 09:48:22;;;;;;;47.95;19.83;;;;;;;13.65;100.00;96831.53;5083940;28;20459;-73
2023/08/29 09:50:50;;;;;;;48.17;19.60;;;;;;;13.73;100.00;96834.34;5086843;28;20402;-74
2023/08/29 09:53:18;;;;;;;42.05;18.02;;;;;;;13.81;100.00;96830.28;5089280;28;20451;-74
2023/08/29 09:55:46;;;;;;;43.30;17.95;;;;;;;13.89;100.00;96834.97;5088990;28;20907;-73
2023/08/29 09:58:15;;;;;;;86.05;29.45;;;;;;;13.87;100.00;96827.25;5082768;28;20502;-74
2023/08/29 10:00:43;;;;;;;62.17;24.07;;;;;;;13.85;100.00;96828.63;5088046;28;20455;-73
2023/08/29 10:03:11;;;;;;;68.10;25.58;;;;;;;13.87;100.00;96831.78;5087759;28;20410;-74
2023/08/29 10:05:39;;;;;;;65.88;24.75;;;;;;;13.92;100.00;96829.84;5086518;28;20433;-73
2023/08/29 10:08:24;;;;;;;51.30;21.17;;;;;;;14.00;100.00;96828.41;5088645;28;20497;-74
2023/08/29 10:10:53;;;;;;;42.17;18.08;;;;;;;14.04;100.00;96828.66;5086496;28;20390;-74
2023/08/29 10:13:20;;;;;;;39.50;16.58;;;;;;;14.09;100.00;96832.03;5088578;28;20487;-74
2023/08/29 10:15:48;;;;;;;45.45;18.83;;;;;;;14.09;100.00;96829.38;5066830;28;20410;-73
2023/08/29 10:18:16;;;;;;;50.00;20.73;;;;;;;14.02;100.00;96834.25;5087283;28;20884;-73
2023/08/29 10:20:45;;;;;;;63.35;24.65;;;;;;;14.01;100.00;96835.34;5088669;28;20888;-74
2023/08/29 10:23:15;;;;;;;48.85;20.90;;;;;;;14.02;100.00;96836.13;5088566;28;20410;-74
2023/08/29 10:25:43;;;;;;;44.53;19.23;;;;;;;14.06;100.00;96824.63;5088002;28;20492;-74
2023/08/29 10:28:12;;;;;;;37.83;16.80;;;;;;;14.15;100.00;96832.75;5080140;28;20405;-74
2023/08/29 10:30:42;;;;;;;42.17;17.80;;;;;;;14.16;100.00;96835.13;5082504;28;20475;-74
2023/08/29 10:33:11;;;;;;;34.37;15.87;;;;;;;14.15;100.00;96833.53;5090149;28;20397;-74
2023/08/29 10:35:37;;;;;;;29.65;14.27;;;;;;;14.14;100.00;96829.28;5084180;28;20452;-74
2023/08/29 10:38:10;;;;;;;27.38;12.77;;;;;;;14.20;100.00;96828.16;5081897;28;20819;-74
2023/08/29 10:40:37;;;;;;;23.65;11.23;;;;;;;14.31;100.00;96836.78;5087589;28;20401;-74
2023/08/29 10:43:14;;;;;;;22.30;11.13;;;;;;;14.38;100.00;96826.59;5087672;28;20446;-73
2023/08/29 10:45:45;;;;;;;23.83;11.57;;;;;;;14.37;100.00;96832.19;5086163;28;20441;-72
2023/08/29 10:48:17;;;;;;;22.33;10.47;;;;;;;14.29;100.00;96822.97;5086865;28;20446;-72
2023/08/29 10:50:47;;;;;;;23.77;10.98;;;;;;;14.22;100.00;96822.53;5088693;28;20402;-72
2023/08/29 10:53:18;;;;;;;24.25;10.73;;;;;;;14.16;100.00;96813.84;5084180;28;20797;-73
2023/08/29 10:55:58;;;;;;;25.55;11.07;;;;;;;14.14;100.00;96820.50;5083512;28;20414;-74
2023/08/29 10:58:34;;;;;;;24.73;11.10;;;;;;;14.14;100.00;96823.19;5088505;28;20402;-73
2023/08/29 11:01:01;;;;;;;27.30;12.55;;;;;;;14.16;100.00;96813.03;5085484;28;20414;-74
2023/08/29 11:03:48;;;;;;;25.55;12.10;;;;;;;14.18;100.00;96813.56;5067154;28;20415;-73
2023/08/29 11:06:15;;;;;;;34.72;14.15;;;;;;;14.18;100.00;96819.66;5082768;28;20441;-73
2023/08/29 11:08:42;;;;;;;35.85;14.75;;;;;;;14.08;100.00;96819.81;5084434;28;20396;-73
2023/08/29 11:11:18;;;;;;;47.57;17.70;;;;;;;13.99;100.00;96810.88;5083771;28;20392;-73